Time;durP1;ratioP1;P1;durP2;ratioP2;P2;SDS_P1;SDS_P2;PMS_P1;PMS_P2;Temp;Humidity;BMP_temperature;BMP_pressure;BME280_temperature;BME280_humidity;BME280_pressure;Samples;Min_cycle;Max_cycle;Signal;HPM_P1;HPM_P2
2022/11/08 00:01:50;;;;;;;10.98;6.20;;;;;;;9.58;85.42;101012.37;1677592;83;21892;-89
2022/11/08 00:04:19;;;;;;;10.85;6.35;;;;;;;9.64;85.22;101012.56;1709936;83;21062;-88
2022/11/08 00:15:06;;;;;;;15.80;6.58;;;;;;;9.50;84.54;101009.48;1719784;83;21832;-88
2022/11/08 00:17:34;;;;;;;15.05;6.58;;;;;;;9.43;84.51;101016.26;1719631;83;21133;-89
2022/11/08 00:20:02;;;;;;;10.55;5.90;;;;;;;9.34;84.46;101014.20;1720264;83;21077;-89
2022/11/08 00:22:30;;;;;;;11.38;6.20;;;;;;;9.31;84.59;101018.48;1701099;83;21086;-88
2022/11/08 00:24:58;;;;;;;8.98;6.33;;;;;;;9.29;84.71;101017.51;1717181;83;21620;-88
2022/11/08 00:27:27;;;;;;;10.18;5.72;;;;;;;9.30;84.81;101012.74;1706566;83;21784;-88
2022/11/08 00:29:55;;;;;;;9.98;6.00;;;;;;;9.30;84.85;101018.00;1724057;83;21089;-88
2022/11/08 00:32:24;;;;;;;10.20;6.25;;;;;;;9.30;84.74;101019.31;1726643;83;21050;-90
2022/11/08 00:34:52;;;;;;;11.70;5.83;;;;;;;9.25;84.61;101015.23;1727113;83;21133;-89
2022/11/08 00:37:21;;;;;;;9.05;6.05;;;;;;;9.19;84.48;101013.67;1726485;83;21532;-88
2022/11/08 00:39:48;;;;;;;9.43;5.40;;;;;;;9.12;84.43;101012.98;1720561;83;21788;-88
2022/11/08 00:42:15;;;;;;;8.78;5.83;;;;;;;9.05;84.49;101020.20;1708928;83;21092;-88
2022/11/08 00:44:42;;;;;;;10.05;5.83;;;;;;;9.00;84.53;101027.01;1696306;83;21521;-88
2022/11/08 00:47:20;;;;;;;13.15;6.45;;;;;;;8.95;84.67;101025.12;1716319;83;21027;-88
2022/11/08 00:49:47;;;;;;;12.60;6.47;;;;;;;8.91;84.65;101028.45;1716513;83;21046;-88
2022/11/08 00:52:13;;;;;;;10.00;5.78;;;;;;;8.87;84.71;101024.36;1716877;83;22463;-88
2022/11/08 00:54:40;;;;;;;10.32;6.45;;;;;;;8.81;84.70;101025.45;1716655;83;21054;-90
2022/11/08 00:57:07;;;;;;;11.25;5.92;;;;;;;8.77;84.74;101027.07;1716447;83;21638;-87
2022/11/08 00:59:34;;;;;;;10.35;6.35;;;;;;;8.72;84.82;101022.06;1705058;83;21105;-89
2022/11/08 01:02:01;;;;;;;8.85;5.55;;;;;;;8.70;84.97;101023.73;1697532;83;21115;-89
2022/11/08 01:04:34;;;;;;;11.50;6.50;;;;;;;8.67;84.98;101026.23;1703483;84;21756;-88
2022/11/08 01:07:02;;;;;;;10.50;6.07;;;;;;;8.64;85.07;101021.78;1703790;84;21859;-92
2022/11/08 01:09:29;;;;;;;8.60;5.17;;;;;;;8.61;85.14;101009.84;1703373;84;21083;-87
2022/11/08 01:11:56;;;;;;;9.53;5.80;;;;;;;8.59;85.18;101018.52;1703571;84;21122;-89
2022/11/08 01:14:22;;;;;;;13.65;6.10;;;;;;;8.56;85.33;101015.38;1703939;84;21039;-89
2022/11/08 01:16:55;;;;;;;11.78;6.22;;;;;;;8.57;85.50;101011.89;1703352;84;21876;-88
2022/11/08 01:19:22;;;;;;;10.32;6.42;;;;;;;8.59;85.68;101012.84;1693339;84;21612;-87
2022/11/08 01:22:11;;;;;;;12.03;6.67;;;;;;;8.63;85.78;101014.73;1682922;85;21023;-91
2022/11/08 01:25:03;;;;;;;10.23;6.05;;;;;;;8.64;85.79;101007.35;1685223;85;21219;-91
2022/11/08 01:27:30;;;;;;;9.63;5.83;;;;;;;8.66;85.82;100999.54;1685190;84;21266;-89
2022/11/08 01:29:57;;;;;;;8.58;5.78;;;;;;;8.65;85.85;100997.34;1684741;84;21760;-89
2022/11/08 01:32:24;;;;;;;11.03;5.90;;;;;;;8.66;85.90;101000.42;1684795;85;21059;-89
2022/11/08 01:34:51;;;;;;;11.85;6.42;;;;;;;8.61;85.80;100996.73;1685162;83;21037;-88
2022/11/08 01:37:18;;;;;;;13.72;6.03;;;;;;;8.58;85.78;100994.41;1685702;83;21053;-88
2022/11/08 01:39:45;;;;;;;9.00;6.47;;;;;;;8.55;85.77;100993.46;1685572;85;21642;-90
2022/11/08 01:42:11;;;;;;;11.18;6.58;;;;;;;8.51;85.70;100989.37;1685721;85;21708;-89
2022/11/08 01:45:05;;;;;;;14.35;6.60;;;;;;;8.47;85.76;100999.28;1685376;85;21555;-90
2022/11/08 01:47:32;;;;;;;8.63;5.85;;;;;;;8.43;85.82;100995.64;1686049;85;21057;-90
2022/11/08 01:50:19;;;;;;;8.30;6.20;;;;;;;8.40;85.95;100992.86;1686266;83;21069;-90
2022/11/08 01:52:48;;;;;;;12.00;6.28;;;;;;;8.37;85.96;100999.30;1716812;83;21616;-89
2022/11/08 01:55:24;;;;;;;10.85;6.05;;;;;;;8.35;86.08;101004.90;1716971;83;21782;-89
2022/11/08 01:58:10;;;;;;;11.05;6.90;;;;;;;8.32;86.12;101012.25;1715600;83;21129;-89
2022/11/08 02:03:38;;;;;;;14.23;6.65;;;;;;;8.26;86.25;100999.30;1699625;83;21067;-89
2022/11/08 02:06:05;;;;;;;14.83;6.65;;;;;;;8.26;86.47;101003.23;1698280;84;21104;-88
2022/11/08 02:08:39;;;;;;;9.53;6.78;;;;;;;8.27;86.53;101007.66;1685032;85;22588;-88
2022/11/08 02:11:10;;;;;;;16.00;6.75;;;;;;;8.27;86.63;100998.48;1691298;84;21615;-88
2022/11/08 02:13:37;;;;;;;13.58;7.10;;;;;;;8.28;86.58;100995.04;1685640;85;21845;-88
2022/11/08 02:16:14;;;;;;;12.73;6.90;;;;;;;8.28;86.59;100994.61;1662888;85;21073;-88
2022/11/08 02:18:50;;;;;;;10.00;6.10;;;;;;;8.28;86.62;100997.66;1687793;83;21105;-88
2022/11/08 02:21:37;;;;;;;11.68;6.97;;;;;;;8.27;86.62;101001.10;1716564;83;21951;-89
2022/11/08 02:24:07;;;;;;;11.75;6.80;;;;;;;8.29;86.72;101002.94;1717118;83;21106;-89
2022/11/08 02:26:35;;;;;;;13.72;6.83;;;;;;;8.26;86.48;100996.68;1716901;83;21071;-90
2022/11/08 02:29:42;;;;;;;12.18;7.15;;;;;;;8.23;86.52;100998.78;1716931;83;21210;-90
2022/11/08 02:32:46;;;;;;;11.90;7.28;;;;;;;8.22;86.51;101000.94;1714046;83;21058;-89
2022/11/08 02:35:16;;;;;;;13.38;6.42;;;;;;;8.18;86.48;100997.70;1711141;83;21834;-90
2022/11/08 02:37:43;;;;;;;14.13;6.30;;;;;;;8.16;86.55;100998.06;1675583;84;21110;-90
2022/11/08 02:40:11;;;;;;;11.53;6.53;;;;;;;8.16;86.62;101004.22;1690653;84;21126;-90
2022/11/08 02:42:37;;;;;;;12.45;6.85;;;;;;;8.16;86.68;100996.36;1686594;84;21051;-90
2022/11/08 02:45:06;;;;;;;15.05;7.25;;;;;;;8.17;86.73;100989.37;1679914;83;21050;-90
2022/11/08 02:47:34;;;;;;;12.73;7.37;;;;;;;8.17;86.75;100988.95;1677986;85;21783;-90
2022/11/08 02:50:01;;;;;;;12.25;7.00;;;;;;;8.17;86.78;100987.64;1678148;85;21065;-90
2022/11/08 02:52:28;;;;;;;13.22;6.95;;;;;;;8.19;86.76;100990.32;1678230;85;21062;-90
2022/11/08 02:54:54;;;;;;;12.85;7.08;;;;;;;8.18;86.81;100989.83;1679932;83;21089;-90
2022/11/08 02:57:21;;;;;;;10.13;7.00;;;;;;;8.21;86.92;100991.70;1678103;85;21077;-91
2022/11/08 02:59:51;;;;;;;13.25;8.00;;;;;;;8.24;87.02;100993.11;1677872;85;22600;-91
2022/11/08 03:02:18;;;;;;;10.48;7.53;;;;;;;8.26;86.97;100994.97;1678230;83;21085;-91
2022/11/08 03:04:51;;;;;;;12.33;8.20;;;;;;;8.29;87.01;100993.76;1677709;85;21156;-91
2022/11/08 03:07:18;;;;;;;14.75;7.62;;;;;;;8.33;87.16;100995.69;1677486;85;21646;-91
2022/11/08 03:09:48;;;;;;;10.38;7.40;;;;;;;8.38;87.13;100998.47;1680140;83;21042;-90
2022/11/08 03:12:14;;;;;;;13.05;7.80;;;;;;;8.42;87.06;101001.71;1705780;83;22474;-91
2022/11/08 03:14:41;;;;;;;11.28;7.80;;;;;;;8.43;87.02;101002.20;1709028;83;21071;-92
2022/11/08 03:17:48;;;;;;;11.00;7.85;;;;;;;8.47;87.07;101004.10;1710804;83;21098;-92
2022/11/08 03:20:52;;;;;;;16.20;7.92;;;;;;;8.49;87.14;100994.98;1708883;83;21071;-92
2022/11/08 03:23:19;;;;;;;12.63;7.67;;;;;;;8.52;87.09;101001.23;1707417;83;21565;-89
2022/11/08 03:25:46;;;;;;;15.18;7.67;;;;;;;8.55;87.15;101000.02;1708549;83;21776;-90
2022/11/08 03:28:13;;;;;;;13.83;8.03;;;;;;;8.58;87.10;100999.66;1711409;83;21624;-89
2022/11/08 03:30:39;;;;;;;14.83;8.10;;;;;;;8.58;87.05;100990.47;1714005;83;21763;-90
2022/11/08 03:33:07;;;;;;;13.75;7.90;;;;;;;8.58;87.09;100994.02;1723951;83;21095;-89
2022/11/08 03:35:33;;;;;;;14.40;8.05;;;;;;;8.61;87.19;100989.28;1714224;83;21021;-89
2022/11/08 03:38:07;;;;;;;12.45;8.65;;;;;;;8.64;87.28;100986.36;1701014;84;21728;-89
2022/11/08 03:40:34;;;;;;;12.55;8.23;;;;;;;8.67;87.31;100989.11;1700810;84;21085;-89
2022/11/08 03:43:01;;;;;;;11.78;7.80;;;;;;;8.71;87.41;100980.93;1701055;84;21054;-88
2022/11/08 03:45:27;;;;;;;8.83;7.45;;;;;;;8.75;87.42;100984.12;1701186;82;21657;-89
2022/11/08 03:48:04;;;;;;;10.95;8.40;;;;;;;8.77;87.43;100974.58;1700928;84;21570;-88
2022/11/08 03:50:30;;;;;;;10.45;8.03;;;;;;;8.80;87.58;100974.67;1706442;83;21789;-87
2022/11/08 03:52:57;;;;;;;10.68;8.40;;;;;;;8.84;87.68;100980.53;1712041;83;21493;-87
2022/11/08 03:55:25;;;;;;;10.75;7.30;;;;;;;8.88;87.66;100976.28;1703847;83;21667;-85
2022/11/08 03:57:52;;;;;;;12.05;7.92;;;;;;;8.92;87.75;100983.42;1710766;83;21195;-86
2022/11/08 04:00:23;;;;;;;10.43;8.15;;;;;;;8.94;87.72;100983.05;1696321;84;21096;-88
2022/11/08 04:02:51;;;;;;;17.50;11.53;;;;;;;8.99;87.73;100988.45;1697307;83;21783;-88
2022/11/08 04:05:18;;;;;;;22.13;12.07;;;;;;;9.02;87.68;100986.83;1697765;84;21084;-88
2022/11/08 04:07:51;;;;;;;25.43;14.25;;;;;;;9.05;87.58;100992.20;1700746;84;21037;-88
2022/11/08 04:10:17;;;;;;;19.40;11.45;;;;;;;9.07;87.46;100985.27;1701108;84;21657;-88
2022/11/08 04:15:30;;;;;;;23.32;13.90;;;;;;;9.08;87.30;100987.46;1717195;83;21870;-87
2022/11/08 04:23:29;;;;;;;21.50;12.63;;;;;;;9.08;87.23;100991.40;1717376;83;21102;-89
2022/11/08 04:25:58;;;;;;;18.50;11.20;;;;;;;9.08;87.17;100991.40;1717307;83;21141;-89
2022/11/08 04:28:26;;;;;;;32.67;15.53;;;;;;;9.07;87.28;100989.20;1717630;83;22909;-89
2022/11/08 04:30:55;;;;;;;41.65;21.70;;;;;;;9.09;87.37;100991.45;1717493;83;21062;-89
2022/11/08 04:33:23;;;;;;;25.65;13.50;;;;;;;9.13;87.39;100997.28;1712791;83;21087;-90
2022/11/08 04:36:11;;;;;;;15.50;9.33;;;;;;;9.17;87.44;100994.78;1713041;83;21074;-90
2022/11/08 04:38:38;;;;;;;16.20;8.20;;;;;;;9.20;87.45;100997.09;1680410;85;21524;-92
2022/11/08 04:41:09;;;;;;;13.85;8.70;;;;;;;9.24;87.46;100992.41;1712623;83;21780;-88
2022/11/08 04:43:36;;;;;;;13.30;7.65;;;;;;;9.27;87.43;100992.92;1712594;83;21536;-88
2022/11/08 04:46:06;;;;;;;12.58;7.53;;;;;;;9.29;87.38;100988.61;1712706;83;21058;-87
2022/11/08 04:48:33;;;;;;;12.73;7.12;;;;;;;9.31;87.42;100985.22;1712567;81;21550;-88
2022/11/08 04:51:18;;;;;;;14.95;7.58;;;;;;;9.34;87.36;100991.87;1712750;83;21074;-88
2022/11/08 04:53:45;;;;;;;13.85;7.33;;;;;;;9.37;87.33;100988.91;1704439;83;22473;-89
2022/11/08 04:56:14;;;;;;;15.43;6.62;;;;;;;9.38;87.31;100986.30;1682663;83;21102;-86
2022/11/08 04:58:45;;;;;;;10.25;6.65;;;;;;;9.42;87.27;100984.27;1701381;83;21656;-86
2022/11/08 05:01:15;;;;;;;10.65;7.05;;;;;;;9.44;87.29;100989.55;1719166;83;21540;-89
2022/11/08 05:03:41;;;;;;;9.13;6.30;;;;;;;9.47;87.22;100990.98;1715967;83;21446;-88
2022/11/08 05:06:15;;;;;;;14.50;7.42;;;;;;;9.48;87.18;100988.41;1711902;83;22576;-86
2022/11/08 05:08:42;;;;;;;12.43;6.97;;;;;;;9.51;87.11;100991.55;1714284;83;22256;-87
2022/11/08 05:11:12;;;;;;;13.45;7.17;;;;;;;9.51;87.07;100992.43;1715963;83;21106;-89
2022/11/08 05:13:39;;;;;;;10.03;6.87;;;;;;;9.53;87.04;100988.15;1715765;83;21356;-86
2022/11/08 05:16:14;;;;;;;9.03;6.67;;;;;;;9.56;87.11;100991.28;1715328;83;21149;-86
2022/11/08 05:18:41;;;;;;;11.22;6.35;;;;;;;9.59;87.05;101000.59;1715141;83;22584;-86
2022/11/08 05:23:55;;;;;;;11.93;7.10;;;;;;;9.60;86.93;100998.42;1712586;83;21070;-85
2022/11/08 05:26:22;;;;;;;12.43;7.15;;;;;;;9.61;86.83;100994.05;1712121;83;21189;-86
2022/11/08 05:28:49;;;;;;;12.68;7.20;;;;;;;9.61;86.80;100989.71;1679116;84;21070;-85
2022/11/08 05:31:15;;;;;;;12.07;6.42;;;;;;;9.62;86.82;100990.59;1675009;85;21755;-86
2022/11/08 05:33:43;;;;;;;12.53;7.05;;;;;;;9.61;86.72;100985.77;1665245;86;21075;-87
2022/11/08 05:36:12;;;;;;;9.48;6.78;;;;;;;9.63;86.69;100994.99;1665278;86;21036;-84
2022/11/08 05:38:39;;;;;;;12.70;7.25;;;;;;;9.62;86.63;100998.05;1665182;86;21648;-86
2022/11/08 05:41:15;;;;;;;12.33;6.78;;;;;;;9.62;86.64;100995.42;1665553;86;21071;-86
2022/11/08 05:43:42;;;;;;;10.93;6.95;;;;;;;9.63;86.54;100998.94;1665054;86;21729;-85
2022/11/08 05:46:08;;;;;;;14.05;7.15;;;;;;;9.61;86.48;101008.50;1665187;86;21115;-84
2022/11/08 05:48:36;;;;;;;14.05;7.12;;;;;;;9.62;86.56;101006.36;1665294;86;21553;-85
2022/11/08 05:51:19;;;;;;;11.33;6.83;;;;;;;9.64;86.56;101009.93;1664752;86;22283;-87
2022/11/08 05:53:48;;;;;;;10.13;6.37;;;;;;;9.65;86.48;101013.05;1657639;86;21115;-86
2022/11/08 05:56:15;;;;;;;15.32;6.40;;;;;;;9.68;86.55;101013.13;1665280;85;21815;-87
2022/11/08 05:58:43;;;;;;;6.85;5.25;;;;;;;9.69;86.54;101019.75;1664911;84;21021;-87
2022/11/08 06:01:12;;;;;;;10.70;6.35;;;;;;;9.72;86.55;101029.47;1673151;83;21109;-86
2022/11/08 06:03:39;;;;;;;10.58;6.10;;;;;;;9.78;86.65;101028.77;1657974;86;21150;-88
2022/11/08 06:06:16;;;;;;;10.30;5.83;;;;;;;9.80;86.53;101025.77;1664252;86;21066;-88
2022/11/08 06:08:43;;;;;;;8.58;5.72;;;;;;;9.79;86.34;101030.14;1664383;86;22574;-87
2022/11/08 06:11:16;;;;;;;9.73;5.45;;;;;;;9.80;86.36;101031.02;1664478;86;22064;-87
2022/11/08 06:14:09;;;;;;;13.95;6.03;;;;;;;9.82;86.34;101031.57;1657859;84;21101;-91
2022/11/08 06:16:36;;;;;;;7.42;5.55;;;;;;;9.84;86.31;101036.45;1664801;86;21171;-89
2022/11/08 06:19:03;;;;;;;9.15;5.78;;;;;;;9.86;86.29;101037.39;1664908;85;21551;-89
2022/11/08 06:21:30;;;;;;;11.45;5.50;;;;;;;9.89;86.32;101041.45;1681072;85;21726;-90
2022/11/08 06:23:57;;;;;;;10.95;5.35;;;;;;;9.91;86.32;101033.61;1687103;85;21059;-90
2022/11/08 06:26:23;;;;;;;10.30;5.30;;;;;;;9.95;86.26;101032.86;1686819;85;21063;-88
2022/11/08 06:28:52;;;;;;;12.40;5.78;;;;;;;9.99;86.29;101031.23;1687047;85;21599;-92
2022/11/08 06:31:19;;;;;;;12.05;6.47;;;;;;;10.01;86.22;101033.05;1685626;85;21074;-89
2022/11/08 06:33:48;;;;;;;8.10;4.33;;;;;;;10.05;86.26;101040.19;1686223;85;22869;-87
2022/11/08 06:36:14;;;;;;;9.68;5.17;;;;;;;10.07;86.11;101041.55;1686922;85;21070;-89
2022/11/08 06:38:41;;;;;;;14.00;5.40;;;;;;;10.09;86.11;101041.17;1687308;85;21134;-88
2022/11/08 06:41:10;;;;;;;12.50;5.60;;;;;;;10.08;86.18;101027.58;1686956;85;21576;-88
2022/11/08 06:43:37;;;;;;;7.62;4.80;;;;;;;10.19;86.16;101035.38;1687078;85;21718;-89
2022/11/08 06:46:07;;;;;;;10.00;5.20;;;;;;;10.24;86.04;101034.19;1686764;85;21880;-89
2022/11/08 06:48:34;;;;;;;10.15;4.62;;;;;;;10.25;85.95;101033.36;1686810;85;21082;-89
2022/11/08 06:51:01;;;;;;;8.20;4.60;;;;;;;10.29;85.87;101033.48;1686919;85;21611;-88
2022/11/08 06:53:27;;;;;;;11.38;4.40;;;;;;;10.31;85.82;101039.72;1686845;84;21694;-86
2022/11/08 06:55:54;;;;;;;10.80;4.83;;;;;;;10.35;85.78;101038.51;1686670;85;21074;-85
2022/11/08 06:58:21;;;;;;;9.63;4.50;;;;;;;10.35;85.65;101035.88;1686577;85;21770;-86
2022/11/08 07:00:48;;;;;;;12.82;4.60;;;;;;;10.36;85.62;101036.33;1686330;85;21713;-86
2022/11/08 07:03:15;;;;;;;9.93;4.90;;;;;;;10.38;85.60;101044.76;1686627;85;21094;-87
2022/11/08 07:05:41;;;;;;;9.90;4.55;;;;;;;10.40;85.59;101044.78;1686669;85;21159;-87
2022/11/08 07:08:08;;;;;;;10.90;5.10;;;;;;;10.42;85.52;101046.63;1686965;85;21082;-87
2022/11/08 07:10:36;;;;;;;10.38;5.22;;;;;;;10.45;85.54;101038.81;1673596;85;21532;-87
2022/11/08 07:13:06;;;;;;;11.05;4.40;;;;;;;10.50;85.54;101037.65;1687071;85;21086;-87
2022/11/08 07:15:34;;;;;;;6.55;4.03;;;;;;;10.54;85.50;101037.31;1686555;84;21599;-87
2022/11/08 07:18:11;;;;;;;11.10;4.97;;;;;;;10.60;85.51;101042.76;1686668;85;21118;-87
2022/11/08 07:20:39;;;;;;;10.00;4.97;;;;;;;10.66;85.49;101037.66;1690962;84;21096;-87
2022/11/08 07:23:05;;;;;;;7.85;4.47;;;;;;;10.73;85.43;101032.16;1692172;84;21790;-87
2022/11/08 07:25:32;;;;;;;9.15;4.42;;;;;;;10.78;85.39;101030.56;1692323;84;21084;-87
2022/11/08 07:28:01;;;;;;;6.72;4.20;;;;;;;10.83;85.26;101031.16;1695625;84;21072;-87
2022/11/08 07:30:28;;;;;;;9.55;4.50;;;;;;;10.86;85.21;101032.98;1672578;84;21049;-88
2022/11/08 07:32:55;;;;;;;11.18;4.40;;;;;;;10.89;85.15;101030.01;1693446;83;21042;-87
2022/11/08 07:35:24;;;;;;;10.35;4.75;;;;;;;10.94;85.12;101031.88;1706123;83;21071;-87
2022/11/08 07:37:51;;;;;;;9.35;4.67;;;;;;;10.97;84.98;101031.53;1701275;83;21580;-87
2022/11/08 07:40:18;;;;;;;13.45;4.95;;;;;;;11.00;84.96;101034.67;1681236;84;21079;-86
2022/11/08 07:42:45;;;;;;;14.98;6.60;;;;;;;11.07;84.99;101033.59;1712097;83;21182;-87
2022/11/08 07:45:11;;;;;;;9.20;4.53;;;;;;;11.09;84.75;101046.38;1712288;83;21628;-88
2022/11/08 07:47:38;;;;;;;12.47;4.55;;;;;;;11.12;84.69;101040.72;1680779;84;21719;-87
2022/11/08 07:50:06;;;;;;;9.75;4.37;;;;;;;11.14;84.67;101035.95;1709767;83;21032;-87
2022/11/08 07:52:33;;;;;;;12.73;4.40;;;;;;;11.21;84.66;101033.08;1706697;83;21148;-87
2022/11/08 07:55:00;;;;;;;9.90;4.95;;;;;;;11.26;84.58;101031.03;1681995;84;21657;-87
2022/11/08 07:57:27;;;;;;;9.30;4.80;;;;;;;11.35;84.69;101032.99;1719880;83;21635;-87
2022/11/08 07:59:55;;;;;;;10.58;5.00;;;;;;;11.43;84.54;101035.83;1719442;83;21762;-87
2022/11/08 08:02:22;;;;;;;9.05;4.47;;;;;;;11.52;84.58;101029.48;1714216;83;21467;-87
2022/11/08 08:04:49;;;;;;;6.85;4.17;;;;;;;11.60;84.39;101024.39;1678336;84;21101;-87
2022/11/08 08:07:16;;;;;;;9.75;4.78;;;;;;;11.64;84.20;101032.88;1694463;84;21163;-87
2022/11/08 08:09:43;;;;;;;9.23;4.42;;;;;;;11.63;83.92;101028.44;1692643;84;21059;-87
2022/11/08 08:12:10;;;;;;;6.53;4.50;;;;;;;11.67;84.03;101028.97;1710651;83;21745;-87
2022/11/08 08:14:37;;;;;;;10.60;4.22;;;;;;;11.72;83.90;101029.11;1669269;85;21145;-86
2022/11/08 08:17:03;;;;;;;9.60;4.20;;;;;;;11.76;83.83;101028.32;1656809;85;21090;-86
2022/11/08 08:19:30;;;;;;;7.50;4.47;;;;;;;11.75;83.74;101027.44;1742472;82;21078;-87
2022/11/08 08:21:57;;;;;;;9.20;4.50;;;;;;;11.76;83.56;101030.52;1743236;82;21066;-87
2022/11/08 08:24:34;;;;;;;11.85;4.58;;;;;;;11.75;83.48;101033.12;1739581;81;22444;-86
2022/11/08 08:27:01;;;;;;;12.20;4.95;;;;;;;11.77;83.61;101035.36;1739703;82;21054;-87
2022/11/08 08:29:29;;;;;;;7.78;4.55;;;;;;;11.80;83.62;101032.38;1739629;82;21366;-87
2022/11/08 08:31:55;;;;;;;18.57;5.40;;;;;;;11.84;83.61;101037.30;1730399;82;21129;-88
2022/11/08 08:34:24;;;;;;;9.80;5.62;;;;;;;11.87;83.63;101032.11;1670082;82;21244;-87
2022/11/08 08:36:52;;;;;;;11.15;5.17;;;;;;;11.90;83.66;101029.59;1665364;84;21899;-87
2022/11/08 08:39:18;;;;;;;16.87;6.90;;;;;;;11.97;83.69;101031.93;1666020;85;21158;-87
2022/11/08 08:41:45;;;;;;;11.75;7.03;;;;;;;12.01;83.63;101026.78;1665839;86;21156;-87
2022/11/08 08:44:12;;;;;;;14.00;7.70;;;;;;;12.10;83.74;101030.04;1666160;84;21154;-87
2022/11/08 08:47:20;;;;;;;13.00;7.47;;;;;;;12.20;83.74;101033.78;1737406;78;79646;-86
2022/11/08 08:49:47;;;;;;;14.43;7.30;;;;;;;12.30;83.60;101033.59;1719431;81;21765;-92
2022/11/08 08:52:14;;;;;;;9.68;6.22;;;;;;;12.42;83.69;101033.84;1724501;82;21092;-93
2022/11/08 08:54:42;;;;;;;11.70;6.40;;;;;;;12.50;83.45;101034.92;1720013;82;22168;-93
2022/11/08 08:57:09;;;;;;;13.13;7.50;;;;;;;12.58;83.29;101040.36;1710385;83;21069;-92
2022/11/08 08:59:35;;;;;;;16.32;7.15;;;;;;;12.58;83.07;101041.24;1712420;83;21045;-93
2022/11/08 09:02:02;;;;;;;14.33;6.85;;;;;;;12.61;83.08;101034.72;1719265;83;21724;-93
2022/11/08 09:04:29;;;;;;;12.07;7.80;;;;;;;12.64;82.89;101034.77;1718565;83;21056;-92
2022/11/08 09:07:09;;;;;;;19.55;8.43;;;;;;;12.71;82.89;101042.40;1714993;83;21025;-91
2022/11/08 09:09:36;;;;;;;14.98;8.65;;;;;;;12.76;82.77;101038.52;1710929;83;21057;-93
2022/11/08 09:12:03;;;;;;;19.87;8.30;;;;;;;12.81;82.80;101037.75;1705694;83;21006;-91
2022/11/08 09:14:30;;;;;;;15.08;8.83;;;;;;;12.88;82.62;101036.58;1745098;81;21723;-92
2022/11/08 09:16:57;;;;;;;17.92;8.13;;;;;;;12.92;82.64;101036.66;1767807;81;21035;-94
2022/11/08 09:19:32;;;;;;;13.68;8.65;;;;;;;12.97;82.47;101035.00;1767679;81;21042;-93
2022/11/08 09:21:59;;;;;;;12.45;6.08;;;;;;;12.97;82.24;101036.33;1768189;81;21126;-93
2022/11/08 09:24:26;;;;;;;12.07;6.58;;;;;;;12.95;81.94;101039.38;1766921;81;21094;-93
2022/11/08 09:26:53;;;;;;;15.00;6.33;;;;;;;12.92;82.02;101035.33;1766005;81;21741;-94
2022/11/08 09:29:23;;;;;;;13.53;6.85;;;;;;;12.94;81.98;101039.33;1762299;80;21072;-92
2022/11/08 09:31:51;;;;;;;14.53;6.78;;;;;;;12.94;81.96;101038.89;1804115;79;21044;-93
2022/11/08 09:34:18;;;;;;;12.00;6.40;;;;;;;12.91;81.85;101041.46;1804740;79;21149;-92
2022/11/08 09:36:46;;;;;;;12.35;5.67;;;;;;;12.89;81.74;101046.27;1804578;79;21478;-94
2022/11/08 09:39:42;;;;;;;9.83;6.22;;;;;;;12.86;81.68;101034.30;1717063;77;78189;-87
2022/11/08 09:42:30;;;;;;;11.65;6.12;;;;;;;12.85;81.74;101040.03;1637816;86;21070;-87
2022/11/08 09:45:19;;;;;;;10.93;6.47;;;;;;;12.89;81.80;101039.22;1652792;85;21064;-87
2022/11/08 09:47:50;;;;;;;14.43;7.40;;;;;;;12.95;81.89;101035.41;1655611;85;21634;-87
2022/11/08 09:50:31;;;;;;;12.50;7.00;;;;;;;13.03;81.91;101027.63;1633041;86;21015;-87
2022/11/08 09:53:34;;;;;;;15.23;7.15;;;;;;;13.12;82.02;101021.20;1642739;87;21747;-87
2022/11/08 09:56:17;;;;;;;13.90;6.85;;;;;;;13.25;81.93;101024.97;1623036;87;20986;-87
2022/11/08 09:59:05;;;;;;;14.80;6.67;;;;;;;13.36;81.88;101022.12;1626016;87;20988;-87
2022/11/08 10:01:35;;;;;;;13.32;6.47;;;;;;;13.47;81.77;101024.93;1645936;85;21546;-87
2022/11/08 10:04:14;;;;;;;17.67;6.28;;;;;;;13.54;81.57;101022.86;1628507;87;21006;-87
2022/11/08 10:07:13;;;;;;;10.70;6.83;;;;;;;13.60;81.50;101024.72;1590978;88;21748;-87
2022/11/08 10:10:24;;;;;;;13.78;6.08;;;;;;;13.62;81.35;101022.98;1646293;86;21385;-87
2022/11/08 10:13:43;;;;;;;12.80;6.97;;;;;;;13.68;81.16;101023.52;1637768;87;21040;-87
2022/11/08 10:16:46;;;;;;;12.45;6.45;;;;;;;13.65;80.90;101021.72;1646497;87;21006;-87
2022/11/08 10:19:27;;;;;;;9.35;6.25;;;;;;;13.72;81.00;101014.77;1645492;87;21932;-87
2022/11/08 10:22:22;;;;;;;10.55;6.80;;;;;;;13.78;80.92;101011.80;1645595;87;21759;-87
2022/11/08 10:25:01;;;;;;;10.88;6.78;;;;;;;13.86;80.97;101005.74;1645535;87;21236;-87
2022/11/08 10:27:38;;;;;;;11.20;6.33;;;;;;;13.95;80.80;101004.56;1646158;87;21492;-87
2022/11/08 10:30:18;;;;;;;11.50;6.35;;;;;;;14.03;80.71;101002.91;1646644;87;21029;-87
2022/11/08 10:32:45;;;;;;;12.50;6.40;;;;;;;14.10;80.58;101002.14;1646473;87;20996;-87
2022/11/08 10:35:26;;;;;;;10.63;5.65;;;;;;;14.17;80.55;101006.66;1623957;87;21749;-87
2022/11/08 10:37:53;;;;;;;10.88;5.85;;;;;;;14.24;80.37;101008.06;1639802;86;21029;-87
2022/11/08 10:40:49;;;;;;;10.35;6.50;;;;;;;14.24;79.98;101004.97;1623996;86;20996;-87
2022/11/08 10:43:35;;;;;;;7.58;5.28;;;;;;;14.18;79.76;101006.22;1659704;85;21210;-87
2022/11/08 10:46:03;;;;;;;12.03;5.90;;;;;;;14.15;79.76;101000.86;1652743;86;20988;-87
2022/11/08 10:48:37;;;;;;;13.32;6.40;;;;;;;14.19;79.74;101000.95;1614913;86;21763;-87
2022/11/08 10:51:03;;;;;;;13.48;7.17;;;;;;;14.29;79.83;101002.41;1628952;87;20978;-87
2022/11/08 10:53:30;;;;;;;14.03;7.28;;;;;;;14.33;79.71;100987.01;1645431;85;20979;-87
2022/11/08 10:56:03;;;;;;;12.70;7.62;;;;;;;14.45;79.55;100996.45;1646421;86;21008;-87
2022/11/08 10:58:39;;;;;;;11.85;6.72;;;;;;;14.42;79.32;100996.41;1647464;85;20976;-87
2022/11/08 11:01:19;;;;;;;12.15;6.92;;;;;;;14.36;79.09;100991.91;1646947;85;21819;-87
2022/11/08 11:03:46;;;;;;;11.63;6.15;;;;;;;14.28;78.86;100996.64;1646333;86;21553;-88
2022/11/08 11:06:31;;;;;;;10.88;6.70;;;;;;;14.18;78.91;100992.53;1647231;86;21387;-88
2022/11/08 11:09:01;;;;;;;11.28;6.75;;;;;;;14.13;78.90;100987.63;1647420;87;21007;-88
2022/11/08 11:11:35;;;;;;;13.30;5.50;;;;;;;14.10;79.00;100990.23;1647663;85;21023;-88
2022/11/08 11:14:16;;;;;;;13.08;6.12;;;;;;;14.11;79.07;100990.66;1647232;85;21747;-88
2022/11/08 11:16:59;;;;;;;9.95;4.90;;;;;;;14.10;78.99;100991.99;1647440;86;21035;-88
2022/11/08 11:19:26;;;;;;;9.75;5.72;;;;;;;14.09;78.95;100991.08;1647498;85;21016;-88
2022/11/08 11:22:06;;;;;;;13.30;5.42;;;;;;;14.07;78.82;100990.61;1647529;86;21472;-87
2022/11/08 11:24:34;;;;;;;13.10;5.55;;;;;;;14.04;78.78;100992.80;1647786;86;20993;-87
2022/11/08 11:27:06;;;;;;;11.12;5.42;;;;;;;14.04;78.87;100990.14;1647676;87;21782;-88
2022/11/08 11:29:37;;;;;;;10.00;5.10;;;;;;;14.05;78.89;100992.35;1645554;86;21031;-88
2022/11/08 11:32:34;;;;;;;11.50;5.55;;;;;;;14.02;78.74;100993.62;1646689;86;20988;-88
2022/11/08 11:35:04;;;;;;;11.40;5.17;;;;;;;13.94;78.69;100993.50;1645325;85;20991;-88
2022/11/08 11:37:44;;;;;;;10.32;5.22;;;;;;;13.86;78.69;100988.10;1647113;85;21007;-88
2022/11/08 11:40:36;;;;;;;10.95;6.03;;;;;;;13.77;78.61;100999.42;1646967;85;21755;-88
2022/11/08 11:43:41;;;;;;;12.88;5.83;;;;;;;13.70;78.64;101000.63;1647246;85;21055;-88
2022/11/08 11:46:22;;;;;;;10.28;6.30;;;;;;;13.60;78.70;100994.30;1647756;86;20988;-88
2022/11/08 11:49:00;;;;;;;10.38;6.60;;;;;;;13.53;78.77;100996.37;1647256;87;21504;-88
2022/11/08 11:51:32;;;;;;;13.28;6.45;;;;;;;13.47;78.86;100998.48;1646875;86;21039;-88
2022/11/08 11:54:06;;;;;;;13.85;5.55;;;;;;;13.48;78.98;101000.72;1647463;85;21772;-88
2022/11/08 11:56:57;;;;;;;15.10;6.40;;;;;;;13.46;78.99;101004.66;1647255;85;21484;-87
2022/11/08 11:59:34;;;;;;;10.45;5.53;;;;;;;13.39;78.94;100997.03;1646995;86;20991;-88
2022/11/08 12:02:30;;;;;;;12.18;5.83;;;;;;;13.31;78.94;101001.75;1626808;87;21406;-88
2022/11/08 12:05:28;;;;;;;15.23;6.30;;;;;;;13.26;79.10;100997.66;1619687;87;21023;-88
2022/11/08 12:08:21;;;;;;;15.00;6.47;;;;;;;13.20;79.16;100988.30;1624429;87;22397;-88